首页
METAR-TAF:

METAR-TAF

机场 :

伯恩茅斯, 英格兰

纬度: 50-47N, 经度: 001-50W, 海拔: 11米

当前天气观测

该预报发布于29分钟前的20:20 UTC
风速11节,风向西转西北
温度 8°C
湿度 81%
气压 1002 hPa
能见度10公里或以上
散云层高于4900英尺

METAR: EGHH 122020Z 29011KT 9999 SCT049 08/05 Q1002

时间: 20:49 (20:49 UTC)

预报

该预报发布于50分钟前的19:59 UTC
预报有效从12日的 21点(UTC)到 13日的 06点(UTC)
风速15节,风向西
能见度10公里或以上
少量云层高于2500英尺
多云层高于3500英尺
成为
从 12日的 22点(UTC)到 13日的 01点(UTC)
风速5节,风向西
成为
从 13日的 00点(UTC)到 13日的 03点(UTC)
能見度: 7000
几率 30%
从 13日的 03点(UTC)到 13日的 06点(UTC)
能見度: 4000
轻雾

TAF: EGHH 121959Z 1221/1306 27015KT 9999 FEW025 BKN035 BECMG 1222/1301 28005KT BECMG 1300/1303 7000 PROB30 1303/1306 4000 BR

超过4000个机场的气象观测和天气预报(METAR&TAF报告)。

可查询的气象台以黄色和红色小点在地图上表示。

将鼠标移到小点上方,可查看气象台名称。

然后点击查看天气观测和预报。

如需切换地图:点击带黑十字的绿色按钮放大地图;点击带横线的绿色按钮缩小地图;或者点击绿色箭头查看邻近地区的地图。


METAR-TAF: